sensor_id;sensor_type;location;lat;lon;timestamp;P1;durP1;ratioP1;P2;durP2;ratioP2
13487;SDS011;6816;48.506;9.050;2022-12-18T00:10:39;21.07;;;10.63;;
13487;SDS011;6816;48.506;9.050;2022-12-18T00:22:37;16.40;;;9.20;;
13487;SDS011;6816;48.506;9.050;2022-12-18T04:31:03;21.57;;;10.27;;
13487;SDS011;6816;48.506;9.050;2022-12-18T04:34:04;23.07;;;12.77;;
13487;SDS011;6816;48.506;9.050;2022-12-18T04:37:05;23.97;;;11.73;;
13487;SDS011;6816;48.506;9.050;2022-12-18T04:40:06;26.67;;;13.13;;
13487;SDS011;6816;48.506;9.050;2022-12-18T04:43:08;19.00;;;9.67;;
13487;SDS011;6816;48.506;9.050;2022-12-18T04:46:09;30.13;;;13.37;;
13487;SDS011;6816;48.506;9.050;2022-12-18T04:49:10;28.57;;;12.50;;
13487;SDS011;6816;48.506;9.050;2022-12-18T04:52:12;21.13;;;11.40;;
13487;SDS011;6816;48.506;9.050;2022-12-18T04:55:14;21.47;;;11.03;;
13487;SDS011;6816;48.506;9.050;2022-12-18T04:58:14;24.93;;;12.23;;
13487;SDS011;6816;48.506;9.050;2022-12-18T05:01:16;25.00;;;13.07;;
13487;SDS011;6816;48.506;9.050;2022-12-18T05:04:18;24.77;;;12.07;;
13487;SDS011;6816;48.506;9.050;2022-12-18T05:07:19;30.43;;;11.70;;
13487;SDS011;6816;48.506;9.050;2022-12-18T05:10:23;25.77;;;12.03;;
13487;SDS011;6816;48.506;9.050;2022-12-18T05:13:27;26.53;;;13.30;;
13487;SDS011;6816;48.506;9.050;2022-12-18T05:16:28;20.67;;;10.30;;
13487;SDS011;6816;48.506;9.050;2022-12-18T05:19:30;26.07;;;11.83;;
13487;SDS011;6816;48.506;9.050;2022-12-18T05:22:31;23.17;;;10.93;;
13487;SDS011;6816;48.506;9.050;2022-12-18T05:25:32;25.43;;;12.67;;
13487;SDS011;6816;48.506;9.050;2022-12-18T05:28:34;21.97;;;10.83;;
13487;SDS011;6816;48.506;9.050;2022-12-18T05:31:36;20.67;;;10.10;;
13487;SDS011;6816;48.506;9.050;2022-12-18T05:34:37;19.47;;;9.20;;
13487;SDS011;6816;48.506;9.050;2022-12-18T05:37:41;22.70;;;10.67;;
13487;SDS011;6816;48.506;9.050;2022-12-18T05:40:42;24.67;;;10.83;;
13487;SDS011;6816;48.506;9.050;2022-12-18T05:43:44;18.53;;;9.80;;
13487;SDS011;6816;48.506;9.050;2022-12-18T05:46:47;14.87;;;9.37;;
13487;SDS011;6816;48.506;9.050;2022-12-18T05:49:48;21.80;;;10.77;;
13487;SDS011;6816;48.506;9.050;2022-12-18T05:52:49;17.63;;;9.10;;
13487;SDS011;6816;48.506;9.050;2022-12-18T05:55:50;18.50;;;8.10;;
13487;SDS011;6816;48.506;9.050;2022-12-18T05:58:53;22.73;;;12.03;;
13487;SDS011;6816;48.506;9.050;2022-12-18T06:01:55;23.47;;;11.03;;
13487;SDS011;6816;48.506;9.050;2022-12-18T06:04:56;13.50;;;8.03;;
13487;SDS011;6816;48.506;9.050;2022-12-18T06:07:57;14.97;;;8.53;;
13487;SDS011;6816;48.506;9.050;2022-12-18T06:10:58;15.47;;;8.50;;
13487;SDS011;6816;48.506;9.050;2022-12-18T06:13:59;15.07;;;8.87;;
13487;SDS011;6816;48.506;9.050;2022-12-18T06:17:01;15.53;;;7.13;;
13487;SDS011;6816;48.506;9.050;2022-12-18T06:20:02;16.77;;;8.53;;
13487;SDS011;6816;48.506;9.050;2022-12-18T06:23:05;13.33;;;7.47;;
13487;SDS011;6816;48.506;9.050;2022-12-18T06:26:07;17.10;;;9.33;;
13487;SDS011;6816;48.506;9.050;2022-12-18T06:29:09;15.00;;;8.10;;
13487;SDS011;6816;48.506;9.050;2022-12-18T06:32:10;14.80;;;7.43;;
13487;SDS011;6816;48.506;9.050;2022-12-18T06:35:13;15.10;;;8.37;;
13487;SDS011;6816;48.506;9.050;2022-12-18T06:38:15;17.87;;;9.40;;
13487;SDS011;6816;48.506;9.050;2022-12-18T06:41:18;29.17;;;13.20;;
13487;SDS011;6816;48.506;9.050;2022-12-18T06:44:20;22.60;;;10.73;;
13487;SDS011;6816;48.506;9.050;2022-12-18T06:47:22;22.33;;;10.67;;
13487;SDS011;6816;48.506;9.050;2022-12-18T06:50:24;19.90;;;10.07;;
13487;SDS011;6816;48.506;9.050;2022-12-18T06:53:26;17.30;;;9.23;;
13487;SDS011;6816;48.506;9.050;2022-12-18T06:56:27;25.67;;;12.50;;
13487;SDS011;6816;48.506;9.050;2022-12-18T06:59:30;23.20;;;10.90;;
13487;SDS011;6816;48.506;9.050;2022-12-18T07:02:31;20.67;;;9.77;;
13487;SDS011;6816;48.506;9.050;2022-12-18T07:05:33;21.57;;;9.90;;
13487;SDS011;6816;48.506;9.050;2022-12-18T07:08:33;19.57;;;10.87;;
13487;SDS011;6816;48.506;9.050;2022-12-18T07:11:36;23.17;;;10.57;;
13487;SDS011;6816;48.506;9.050;2022-12-18T07:14:39;23.20;;;11.23;;
13487;SDS011;6816;48.506;9.050;2022-12-18T07:17:40;19.60;;;9.53;;
13487;SDS011;6816;48.506;9.050;2022-12-18T07:20:40;23.53;;;11.77;;
13487;SDS011;6816;48.506;9.050;2022-12-18T07:23:42;21.90;;;10.53;;
13487;SDS011;6816;48.506;9.050;2022-12-18T07:26:45;19.27;;;9.13;;
13487;SDS011;6816;48.506;9.050;2022-12-18T07:29:46;23.47;;;10.17;;
13487;SDS011;6816;48.506;9.050;2022-12-18T07:32:48;24.73;;;11.97;;
13487;SDS011;6816;48.506;9.050;2022-12-18T07:35:50;22.00;;;10.40;;
13487;SDS011;6816;48.506;9.050;2022-12-18T07:38:51;19.30;;;10.60;;
13487;SDS011;6816;48.506;9.050;2022-12-18T07:41:54;20.40;;;11.30;;
13487;SDS011;6816;48.506;9.050;2022-12-18T07:45:14;13.37;;;7.23;;
13487;SDS011;6816;48.506;9.050;2022-12-18T07:48:15;18.77;;;10.47;;
13487;SDS011;6816;48.506;9.050;2022-12-18T07:51:16;20.37;;;10.23;;
13487;SDS011;6816;48.506;9.050;2022-12-18T07:54:18;18.23;;;9.90;;
13487;SDS011;6816;48.506;9.050;2022-12-18T07:57:20;19.33;;;10.40;;
13487;SDS011;6816;48.506;9.050;2022-12-18T08:00:21;26.03;;;11.53;;
13487;SDS011;6816;48.506;9.050;2022-12-18T08:03:22;19.37;;;10.23;;
13487;SDS011;6816;48.506;9.050;2022-12-18T08:06:24;21.00;;;10.50;;
13487;SDS011;6816;48.506;9.050;2022-12-18T08:09:26;28.27;;;13.20;;
13487;SDS011;6816;48.506;9.050;2022-12-18T08:12:29;18.97;;;10.40;;
13487;SDS011;6816;48.506;9.050;2022-12-18T08:15:31;19.77;;;10.20;;
13487;SDS011;6816;48.506;9.050;2022-12-18T08:18:34;24.37;;;12.43;;
13487;SDS011;6816;48.506;9.050;2022-12-18T08:21:36;20.40;;;10.10;;
13487;SDS011;6816;48.506;9.050;2022-12-18T08:24:38;25.27;;;12.93;;
13487;SDS011;6816;48.506;9.050;2022-12-18T08:27:39;23.10;;;12.43;;
13487;SDS011;6816;48.506;9.050;2022-12-18T08:30:40;19.87;;;10.77;;
13487;SDS011;6816;48.506;9.050;2022-12-18T08:33:42;17.27;;;9.33;;
13487;SDS011;6816;48.506;9.050;2022-12-18T08:36:43;15.80;;;8.67;;
13487;SDS011;6816;48.506;9.050;2022-12-18T08:39:45;16.60;;;9.30;;
13487;SDS011;6816;48.506;9.050;2022-12-18T08:42:46;19.50;;;10.73;;
13487;SDS011;6816;48.506;9.050;2022-12-18T08:46:06;17.43;;;9.47;;
13487;SDS011;6816;48.506;9.050;2022-12-18T08:49:08;14.53;;;8.37;;
13487;SDS011;6816;48.506;9.050;2022-12-18T08:52:10;19.67;;;10.90;;
13487;SDS011;6816;48.506;9.050;2022-12-18T08:55:11;17.83;;;9.33;;
13487;SDS011;6816;48.506;9.050;2022-12-18T08:58:12;16.63;;;9.07;;
13487;SDS011;6816;48.506;9.050;2022-12-18T09:01:13;18.50;;;9.80;;
13487;SDS011;6816;48.506;9.050;2022-12-18T09:04:15;19.30;;;10.43;;
13487;SDS011;6816;48.506;9.050;2022-12-18T09:07:17;22.50;;;11.43;;
13487;SDS011;6816;48.506;9.050;2022-12-18T09:10:18;23.17;;;13.07;;
13487;SDS011;6816;48.506;9.050;2022-12-18T09:13:23;18.07;;;9.13;;
13487;SDS011;6816;48.506;9.050;2022-12-18T09:16:25;24.97;;;12.20;;
13487;SDS011;6816;48.506;9.050;2022-12-18T09:19:28;19.77;;;11.07;;
13487;SDS011;6816;48.506;9.050;2022-12-18T09:22:29;23.83;;;12.67;;
13487;SDS011;6816;48.506;9.050;2022-12-18T09:25:32;26.07;;;12.97;;
13487;SDS011;6816;48.506;9.050;2022-12-18T09:28:35;23.90;;;11.47;;
13487;SDS011;6816;48.506;9.050;2022-12-18T09:31:36;27.43;;;14.10;;
13487;SDS011;6816;48.506;9.050;2022-12-18T09:34:38;21.93;;;12.73;;
13487;SDS011;6816;48.506;9.050;2022-12-18T09:37:39;21.10;;;12.03;;
13487;SDS011;6816;48.506;9.050;2022-12-18T09:40:43;23.73;;;12.83;;
13487;SDS011;6816;48.506;9.050;2022-12-18T09:43:56;23.50;;;12.03;;
13487;SDS011;6816;48.506;9.050;2022-12-18T09:48:19;20.47;;;11.87;;
13487;SDS011;6816;48.506;9.050;2022-12-18T09:52:21;19.77;;;10.60;;
13487;SDS011;6816;48.506;9.050;2022-12-18T09:55:47;21.90;;;12.10;;
13487;SDS011;6816;48.506;9.050;2022-12-18T09:59:21;19.73;;;11.17;;
13487;SDS011;6816;48.506;9.050;2022-12-18T10:02:26;25.07;;;13.93;;
13487;SDS011;6816;48.506;9.050;2022-12-18T10:22:10;31.83;;;16.77;;
13487;SDS011;6816;48.506;9.050;2022-12-18T10:25:21;37.87;;;18.97;;
13487;SDS011;6816;48.506;9.050;2022-12-18T10:28:29;36.87;;;18.03;;
13487;SDS011;6816;48.506;9.050;2022-12-18T10:31:32;35.57;;;18.50;;
13487;SDS011;6816;48.506;9.050;2022-12-18T10:34:33;38.50;;;19.60;;
13487;SDS011;6816;48.506;9.050;2022-12-18T10:37:35;41.10;;;20.53;;
13487;SDS011;6816;48.506;9.050;2022-12-18T10:40:58;45.03;;;22.80;;
13487;SDS011;6816;48.506;9.050;2022-12-18T10:44:12;46.23;;;22.00;;
13487;SDS011;6816;48.506;9.050;2022-12-18T10:47:20;44.30;;;22.90;;
13487;SDS011;6816;48.506;9.050;2022-12-18T10:50:28;43.00;;;22.10;;
13487;SDS011;6816;48.506;9.050;2022-12-18T10:53:35;44.30;;;22.53;;
13487;SDS011;6816;48.506;9.050;2022-12-18T10:56:39;42.77;;;21.00;;
13487;SDS011;6816;48.506;9.050;2022-12-18T10:59:49;49.70;;;23.23;;
13487;SDS011;6816;48.506;9.050;2022-12-18T11:02:57;47.70;;;22.90;;
13487;SDS011;6816;48.506;9.050;2022-12-18T11:06:03;42.03;;;22.87;;
13487;SDS011;6816;48.506;9.050;2022-12-18T11:09:19;41.33;;;21.93;;
13487;SDS011;6816;48.506;9.050;2022-12-18T11:12:22;43.23;;;21.83;;
13487;SDS011;6816;48.506;9.050;2022-12-18T11:15:27;45.03;;;20.80;;
13487;SDS011;6816;48.506;9.050;2022-12-18T11:18:34;41.67;;;21.93;;
13487;SDS011;6816;48.506;9.050;2022-12-18T11:21:39;41.30;;;22.13;;
13487;SDS011;6816;48.506;9.050;2022-12-18T11:24:49;38.33;;;20.53;;
13487;SDS011;6816;48.506;9.050;2022-12-18T11:27:59;43.60;;;21.73;;
13487;SDS011;6816;48.506;9.050;2022-12-18T11:31:16;40.17;;;21.80;;
13487;SDS011;6816;48.506;9.050;2022-12-18T11:34:34;37.30;;;21.03;;
13487;SDS011;6816;48.506;9.050;2022-12-18T11:37:43;34.83;;;19.30;;
13487;SDS011;6816;48.506;9.050;2022-12-18T11:48:18;32.07;;;19.93;;
13487;SDS011;6816;48.506;9.050;2022-12-18T11:51:28;32.83;;;19.77;;
13487;SDS011;6816;48.506;9.050;2022-12-18T11:54:34;32.37;;;19.60;;
13487;SDS011;6816;48.506;9.050;2022-12-18T11:57:37;32.17;;;19.90;;
13487;SDS011;6816;48.506;9.050;2022-12-18T12:00:43;32.27;;;19.23;;
13487;SDS011;6816;48.506;9.050;2022-12-18T12:14:08;38.53;;;22.07;;
13487;SDS011;6816;48.506;9.050;2022-12-18T12:20:59;37.33;;;21.63;;
13487;SDS011;6816;48.506;9.050;2022-12-18T12:30:56;41.30;;;23.37;;
13487;SDS011;6816;48.506;9.050;2022-12-18T12:40:51;44.50;;;23.57;;
13487;SDS011;6816;48.506;9.050;2022-12-18T12:44:05;40.27;;;23.73;;
13487;SDS011;6816;48.506;9.050;2022-12-18T12:47:14;45.67;;;24.17;;
13487;SDS011;6816;48.506;9.050;2022-12-18T12:50:19;41.93;;;24.77;;
13487;SDS011;6816;48.506;9.050;2022-12-18T12:53:29;37.07;;;21.60;;
13487;SDS011;6816;48.506;9.050;2022-12-18T12:56:54;43.33;;;23.20;;
13487;SDS011;6816;48.506;9.050;2022-12-18T13:00:15;45.57;;;23.30;;
13487;SDS011;6816;48.506;9.050;2022-12-18T13:10:31;42.73;;;22.10;;
13487;SDS011;6816;48.506;9.050;2022-12-18T13:13:27;42.37;;;23.53;;
13487;SDS011;6816;48.506;9.050;2022-12-18T13:16:51;47.03;;;23.27;;
13487;SDS011;6816;48.506;9.050;2022-12-18T13:20:12;38.23;;;21.60;;
13487;SDS011;6816;48.506;9.050;2022-12-18T13:29:42;40.47;;;23.03;;
13487;SDS011;6816;48.506;9.050;2022-12-18T13:32:44;44.77;;;23.80;;
13487;SDS011;6816;48.506;9.050;2022-12-18T13:38:45;40.40;;;22.97;;
13487;SDS011;6816;48.506;9.050;2022-12-18T13:41:50;40.47;;;22.80;;
13487;SDS011;6816;48.506;9.050;2022-12-18T13:44:53;45.07;;;23.70;;
13487;SDS011;6816;48.506;9.050;2022-12-18T13:47:54;38.17;;;22.00;;
13487;SDS011;6816;48.506;9.050;2022-12-18T13:50:56;42.70;;;22.77;;
13487;SDS011;6816;48.506;9.050;2022-12-18T13:54:01;41.37;;;22.73;;
13487;SDS011;6816;48.506;9.050;2022-12-18T13:57:03;39.33;;;23.50;;
13487;SDS011;6816;48.506;9.050;2022-12-18T14:03:23;42.10;;;23.27;;
13487;SDS011;6816;48.506;9.050;2022-12-18T14:06:26;39.87;;;23.17;;
13487;SDS011;6816;48.506;9.050;2022-12-18T14:09:28;37.00;;;21.10;;
13487;SDS011;6816;48.506;9.050;2022-12-18T14:12:31;49.70;;;23.87;;
13487;SDS011;6816;48.506;9.050;2022-12-18T14:15:51;38.77;;;22.60;;
13487;SDS011;6816;48.506;9.050;2022-12-18T14:18:53;44.23;;;23.13;;
13487;SDS011;6816;48.506;9.050;2022-12-18T14:21:58;42.47;;;24.03;;
13487;SDS011;6816;48.506;9.050;2022-12-18T14:28:18;41.23;;;22.93;;
13487;SDS011;6816;48.506;9.050;2022-12-18T14:31:19;39.60;;;22.40;;
13487;SDS011;6816;48.506;9.050;2022-12-18T14:34:21;41.77;;;23.03;;
13487;SDS011;6816;48.506;9.050;2022-12-18T14:37:26;42.00;;;23.27;;
13487;SDS011;6816;48.506;9.050;2022-12-18T14:40:27;43.20;;;23.90;;
13487;SDS011;6816;48.506;9.050;2022-12-18T14:43:29;43.57;;;24.33;;
13487;SDS011;6816;48.506;9.050;2022-12-18T14:49:36;46.77;;;24.33;;
13487;SDS011;6816;48.506;9.050;2022-12-18T14:52:38;41.93;;;23.70;;
13487;SDS011;6816;48.506;9.050;2022-12-18T14:55:38;39.97;;;22.27;;
13487;SDS011;6816;48.506;9.050;2022-12-18T14:58:50;42.60;;;23.17;;
13487;SDS011;6816;48.506;9.050;2022-12-18T15:05:20;43.70;;;23.97;;
13487;SDS011;6816;48.506;9.050;2022-12-18T15:08:37;46.63;;;24.23;;
13487;SDS011;6816;48.506;9.050;2022-12-18T15:14:41;40.80;;;23.70;;
13487;SDS011;6816;48.506;9.050;2022-12-18T15:17:42;46.20;;;25.63;;
13487;SDS011;6816;48.506;9.050;2022-12-18T15:20:47;43.83;;;25.73;;
13487;SDS011;6816;48.506;9.050;2022-12-18T15:23:52;52.40;;;26.63;;
13487;SDS011;6816;48.506;9.050;2022-12-18T15:26:53;47.83;;;25.10;;
13487;SDS011;6816;48.506;9.050;2022-12-18T15:33:22;48.73;;;26.00;;
13487;SDS011;6816;48.506;9.050;2022-12-18T15:36:25;47.60;;;26.03;;
13487;SDS011;6816;48.506;9.050;2022-12-18T15:39:26;50.30;;;25.37;;
13487;SDS011;6816;48.506;9.050;2022-12-18T15:42:26;45.63;;;25.07;;
13487;SDS011;6816;48.506;9.050;2022-12-18T15:45:45;48.93;;;25.23;;
13487;SDS011;6816;48.506;9.050;2022-12-18T15:48:50;51.50;;;26.30;;
13487;SDS011;6816;48.506;9.050;2022-12-18T15:51:52;50.07;;;27.40;;
13487;SDS011;6816;48.506;9.050;2022-12-18T15:54:56;47.20;;;26.53;;
13487;SDS011;6816;48.506;9.050;2022-12-18T15:58:15;55.13;;;28.07;;
13487;SDS011;6816;48.506;9.050;2022-12-18T16:01:15;43.07;;;24.77;;
13487;SDS011;6816;48.506;9.050;2022-12-18T16:04:17;56.07;;;29.23;;
13487;SDS011;6816;48.506;9.050;2022-12-18T16:07:20;53.43;;;29.37;;
13487;SDS011;6816;48.506;9.050;2022-12-18T16:10:21;51.33;;;27.93;;
13487;SDS011;6816;48.506;9.050;2022-12-18T16:13:23;60.40;;;31.17;;
13487;SDS011;6816;48.506;9.050;2022-12-18T16:16:24;53.70;;;28.50;;
13487;SDS011;6816;48.506;9.050;2022-12-18T16:19:24;56.40;;;29.00;;
13487;SDS011;6816;48.506;9.050;2022-12-18T16:22:27;56.97;;;29.90;;
13487;SDS011;6816;48.506;9.050;2022-12-18T16:25:29;53.70;;;29.20;;
13487;SDS011;6816;48.506;9.050;2022-12-18T16:28:30;51.67;;;24.90;;
13487;SDS011;6816;48.506;9.050;2022-12-18T16:31:30;47.67;;;24.87;;
13487;SDS011;6816;48.506;9.050;2022-12-18T16:34:32;56.50;;;29.07;;
13487;SDS011;6816;48.506;9.050;2022-12-18T16:37:34;50.53;;;27.57;;
13487;SDS011;6816;48.506;9.050;2022-12-18T16:40:34;49.03;;;27.13;;
13487;SDS011;6816;48.506;9.050;2022-12-18T16:43:55;53.70;;;28.40;;
13487;SDS011;6816;48.506;9.050;2022-12-18T16:46:56;56.23;;;29.10;;
13487;SDS011;6816;48.506;9.050;2022-12-18T16:50:01;56.97;;;28.97;;
13487;SDS011;6816;48.506;9.050;2022-12-18T16:53:02;52.30;;;28.67;;
13487;SDS011;6816;48.506;9.050;2022-12-18T16:56:03;53.90;;;28.73;;
13487;SDS011;6816;48.506;9.050;2022-12-18T16:59:04;59.10;;;29.93;;
13487;SDS011;6816;48.506;9.050;2022-12-18T17:02:05;57.07;;;29.93;;
13487;SDS011;6816;48.506;9.050;2022-12-18T17:05:11;56.17;;;27.67;;
13487;SDS011;6816;48.506;9.050;2022-12-18T17:08:11;58.03;;;29.73;;
13487;SDS011;6816;48.506;9.050;2022-12-18T17:11:12;61.73;;;32.03;;
13487;SDS011;6816;48.506;9.050;2022-12-18T17:14:17;49.47;;;27.67;;
13487;SDS011;6816;48.506;9.050;2022-12-18T17:17:19;57.97;;;29.87;;
13487;SDS011;6816;48.506;9.050;2022-12-18T17:20:20;59.70;;;30.93;;
13487;SDS011;6816;48.506;9.050;2022-12-18T17:23:21;57.33;;;30.63;;
13487;SDS011;6816;48.506;9.050;2022-12-18T17:26:21;53.03;;;29.93;;
13487;SDS011;6816;48.506;9.050;2022-12-18T17:29:22;60.27;;;30.73;;
13487;SDS011;6816;48.506;9.050;2022-12-18T17:32:23;59.40;;;31.40;;
13487;SDS011;6816;48.506;9.050;2022-12-18T17:35:24;51.03;;;27.67;;
13487;SDS011;6816;48.506;9.050;2022-12-18T17:38:24;64.17;;;31.50;;
13487;SDS011;6816;48.506;9.050;2022-12-18T17:41:25;62.67;;;31.13;;
13487;SDS011;6816;48.506;9.050;2022-12-18T17:44:27;56.77;;;30.77;;
13487;SDS011;6816;48.506;9.050;2022-12-18T17:47:27;59.93;;;31.90;;
13487;SDS011;6816;48.506;9.050;2022-12-18T17:50:28;65.47;;;33.90;;
13487;SDS011;6816;48.506;9.050;2022-12-18T17:53:29;59.20;;;33.40;;
13487;SDS011;6816;48.506;9.050;2022-12-18T17:56:30;54.43;;;29.57;;
13487;SDS011;6816;48.506;9.050;2022-12-18T17:59:30;51.80;;;30.10;;
13487;SDS011;6816;48.506;9.050;2022-12-18T18:02:31;53.93;;;29.70;;
13487;SDS011;6816;48.506;9.050;2022-12-18T18:05:31;56.73;;;29.40;;
13487;SDS011;6816;48.506;9.050;2022-12-18T18:08:33;62.20;;;32.30;;
13487;SDS011;6816;48.506;9.050;2022-12-18T18:11:34;53.57;;;29.30;;
13487;SDS011;6816;48.506;9.050;2022-12-18T18:14:54;63.67;;;32.57;;
13487;SDS011;6816;48.506;9.050;2022-12-18T18:17:54;57.17;;;27.10;;
13487;SDS011;6816;48.506;9.050;2022-12-18T18:20:55;62.60;;;33.23;;
13487;SDS011;6816;48.506;9.050;2022-12-18T18:23:58;60.00;;;32.67;;
13487;SDS011;6816;48.506;9.050;2022-12-18T18:27:00;64.60;;;33.13;;
13487;SDS011;6816;48.506;9.050;2022-12-18T18:30:00;60.73;;;32.57;;
13487;SDS011;6816;48.506;9.050;2022-12-18T18:33:01;58.60;;;33.50;;
13487;SDS011;6816;48.506;9.050;2022-12-18T18:36:02;56.07;;;31.17;;
13487;SDS011;6816;48.506;9.050;2022-12-18T18:39:02;55.63;;;30.77;;
13487;SDS011;6816;48.506;9.050;2022-12-18T18:42:03;56.97;;;31.30;;
13487;SDS011;6816;48.506;9.050;2022-12-18T18:45:04;60.63;;;32.13;;
13487;SDS011;6816;48.506;9.050;2022-12-18T18:48:05;53.83;;;29.07;;
13487;SDS011;6816;48.506;9.050;2022-12-18T18:54:08;55.93;;;29.50;;
13487;SDS011;6816;48.506;9.050;2022-12-18T18:57:09;57.73;;;30.00;;
13487;SDS011;6816;48.506;9.050;2022-12-18T19:00:10;56.73;;;29.93;;
13487;SDS011;6816;48.506;9.050;2022-12-18T19:03:12;60.27;;;30.40;;
13487;SDS011;6816;48.506;9.050;2022-12-18T19:06:15;56.07;;;29.87;;
13487;SDS011;6816;48.506;9.050;2022-12-18T19:09:18;56.37;;;29.63;;
13487;SDS011;6816;48.506;9.050;2022-12-18T19:12:19;53.80;;;28.03;;
13487;SDS011;6816;48.506;9.050;2022-12-18T19:15:38;54.90;;;30.00;;
13487;SDS011;6816;48.506;9.050;2022-12-18T19:18:39;53.97;;;30.13;;
13487;SDS011;6816;48.506;9.050;2022-12-18T19:21:40;57.23;;;31.37;;
13487;SDS011;6816;48.506;9.050;2022-12-18T19:24:40;53.77;;;29.40;;
13487;SDS011;6816;48.506;9.050;2022-12-18T19:27:41;46.67;;;24.93;;
13487;SDS011;6816;48.506;9.050;2022-12-18T19:30:42;54.17;;;30.00;;
13487;SDS011;6816;48.506;9.050;2022-12-18T19:33:43;50.47;;;30.03;;
13487;SDS011;6816;48.506;9.050;2022-12-18T19:36:46;46.70;;;26.37;;
13487;SDS011;6816;48.506;9.050;2022-12-18T19:39:46;53.27;;;29.27;;
13487;SDS011;6816;48.506;9.050;2022-12-18T19:42:47;53.40;;;30.57;;
13487;SDS011;6816;48.506;9.050;2022-12-18T19:45:53;49.90;;;28.53;;
13487;SDS011;6816;48.506;9.050;2022-12-18T19:48:57;57.43;;;29.90;;
13487;SDS011;6816;48.506;9.050;2022-12-18T19:51:58;53.73;;;31.00;;
13487;SDS011;6816;48.506;9.050;2022-12-18T19:54:59;54.63;;;30.50;;
13487;SDS011;6816;48.506;9.050;2022-12-18T19:58:00;48.30;;;27.90;;
13487;SDS011;6816;48.506;9.050;2022-12-18T20:01:00;57.20;;;29.10;;
13487;SDS011;6816;48.506;9.050;2022-12-18T20:04:01;50.87;;;29.53;;
13487;SDS011;6816;48.506;9.050;2022-12-18T20:07:02;50.67;;;28.93;;
13487;SDS011;6816;48.506;9.050;2022-12-18T20:10:03;53.90;;;29.40;;
13487;SDS011;6816;48.506;9.050;2022-12-18T20:13:05;50.00;;;26.13;;
13487;SDS011;6816;48.506;9.050;2022-12-18T20:16:06;48.53;;;27.93;;
13487;SDS011;6816;48.506;9.050;2022-12-18T20:19:07;54.97;;;30.97;;
13487;SDS011;6816;48.506;9.050;2022-12-18T20:22:09;54.50;;;31.20;;
13487;SDS011;6816;48.506;9.050;2022-12-18T20:25:10;59.03;;;32.03;;
13487;SDS011;6816;48.506;9.050;2022-12-18T20:28:10;58.60;;;30.60;;
13487;SDS011;6816;48.506;9.050;2022-12-18T20:31:11;55.67;;;30.73;;
13487;SDS011;6816;48.506;9.050;2022-12-18T20:34:12;46.13;;;26.83;;
13487;SDS011;6816;48.506;9.050;2022-12-18T20:37:12;55.83;;;31.63;;
13487;SDS011;6816;48.506;9.050;2022-12-18T20:40:13;58.27;;;31.37;;
13487;SDS011;6816;48.506;9.050;2022-12-18T20:43:14;54.70;;;29.17;;
13487;SDS011;6816;48.506;9.050;2022-12-18T20:46:15;51.40;;;29.47;;
13487;SDS011;6816;48.506;9.050;2022-12-18T20:49:16;50.03;;;29.03;;
13487;SDS011;6816;48.506;9.050;2022-12-18T20:52:17;49.77;;;29.00;;
13487;SDS011;6816;48.506;9.050;2022-12-18T20:55:17;53.67;;;29.10;;
13487;SDS011;6816;48.506;9.050;2022-12-18T20:58:18;48.10;;;27.43;;
13487;SDS011;6816;48.506;9.050;2022-12-18T21:01:19;51.30;;;27.57;;
13487;SDS011;6816;48.506;9.050;2022-12-18T21:04:20;53.60;;;29.43;;
13487;SDS011;6816;48.506;9.050;2022-12-18T21:07:21;51.87;;;29.40;;
13487;SDS011;6816;48.506;9.050;2022-12-18T21:10:22;56.03;;;30.23;;
13487;SDS011;6816;48.506;9.050;2022-12-18T21:13:22;51.37;;;28.63;;
13487;SDS011;6816;48.506;9.050;2022-12-18T21:16:23;52.80;;;29.77;;
13487;SDS011;6816;48.506;9.050;2022-12-18T21:19:24;58.83;;;30.47;;
13487;SDS011;6816;48.506;9.050;2022-12-18T21:22:26;54.03;;;29.63;;
13487;SDS011;6816;48.506;9.050;2022-12-18T21:25:27;52.30;;;28.47;;
13487;SDS011;6816;48.506;9.050;2022-12-18T21:28:29;48.80;;;28.17;;
13487;SDS011;6816;48.506;9.050;2022-12-18T21:31:31;47.63;;;27.80;;
13487;SDS011;6816;48.506;9.050;2022-12-18T21:34:33;45.37;;;25.43;;
13487;SDS011;6816;48.506;9.050;2022-12-18T21:37:34;43.93;;;25.00;;
13487;SDS011;6816;48.506;9.050;2022-12-18T21:40:34;46.77;;;25.27;;
13487;SDS011;6816;48.506;9.050;2022-12-18T21:43:37;43.93;;;25.10;;
13487;SDS011;6816;48.506;9.050;2022-12-18T21:47:04;42.30;;;24.33;;
13487;SDS011;6816;48.506;9.050;2022-12-18T21:50:05;40.43;;;22.47;;
13487;SDS011;6816;48.506;9.050;2022-12-18T21:53:06;39.33;;;22.17;;
13487;SDS011;6816;48.506;9.050;2022-12-18T21:56:07;38.30;;;21.00;;
13487;SDS011;6816;48.506;9.050;2022-12-18T21:59:07;40.67;;;23.17;;
13487;SDS011;6816;48.506;9.050;2022-12-18T22:02:12;44.33;;;24.17;;
13487;SDS011;6816;48.506;9.050;2022-12-18T22:05:15;39.37;;;22.67;;
13487;SDS011;6816;48.506;9.050;2022-12-18T22:08:16;41.70;;;24.40;;
13487;SDS011;6816;48.506;9.050;2022-12-18T22:11:16;45.10;;;24.20;;
13487;SDS011;6816;48.506;9.050;2022-12-18T22:14:17;39.30;;;21.93;;
13487;SDS011;6816;48.506;9.050;2022-12-18T22:17:18;40.57;;;22.87;;
13487;SDS011;6816;48.506;9.050;2022-12-18T22:20:19;43.20;;;25.27;;
13487;SDS011;6816;48.506;9.050;2022-12-18T22:23:20;44.03;;;25.90;;
13487;SDS011;6816;48.506;9.050;2022-12-18T22:26:21;43.93;;;25.20;;
13487;SDS011;6816;48.506;9.050;2022-12-18T22:29:22;44.53;;;24.40;;
13487;SDS011;6816;48.506;9.050;2022-12-18T22:32:42;43.60;;;24.90;;
13487;SDS011;6816;48.506;9.050;2022-12-18T22:35:43;49.80;;;26.43;;
13487;SDS011;6816;48.506;9.050;2022-12-18T22:38:45;46.73;;;26.40;;
13487;SDS011;6816;48.506;9.050;2022-12-18T22:41:46;41.50;;;25.53;;
13487;SDS011;6816;48.506;9.050;2022-12-18T22:44:47;50.70;;;27.83;;
13487;SDS011;6816;48.506;9.050;2022-12-18T22:47:47;46.13;;;26.40;;
13487;SDS011;6816;48.506;9.050;2022-12-18T22:50:48;51.83;;;26.83;;
13487;SDS011;6816;48.506;9.050;2022-12-18T22:53:49;44.43;;;26.33;;
13487;SDS011;6816;48.506;9.050;2022-12-18T22:56:49;44.93;;;25.20;;
13487;SDS011;6816;48.506;9.050;2022-12-18T22:59:50;49.00;;;27.60;;
13487;SDS011;6816;48.506;9.050;2022-12-18T23:02:51;46.40;;;27.03;;
13487;SDS011;6816;48.506;9.050;2022-12-18T23:05:52;46.53;;;26.80;;
13487;SDS011;6816;48.506;9.050;2022-12-18T23:09:00;39.57;;;25.03;;
13487;SDS011;6816;48.506;9.050;2022-12-18T23:12:01;47.60;;;25.67;;
13487;SDS011;6816;48.506;9.050;2022-12-18T23:15:03;39.43;;;24.30;;
13487;SDS011;6816;48.506;9.050;2022-12-18T23:18:04;44.60;;;25.70;;
13487;SDS011;6816;48.506;9.050;2022-12-18T23:21:05;45.70;;;26.70;;
13487;SDS011;6816;48.506;9.050;2022-12-18T23:24:07;43.87;;;24.93;;
13487;SDS011;6816;48.506;9.050;2022-12-18T23:27:08;37.63;;;21.43;;
13487;SDS011;6816;48.506;9.050;2022-12-18T23:30:09;40.13;;;23.80;;
13487;SDS011;6816;48.506;9.050;2022-12-18T23:33:10;44.13;;;23.77;;
13487;SDS011;6816;48.506;9.050;2022-12-18T23:36:11;40.93;;;22.63;;
13487;SDS011;6816;48.506;9.050;2022-12-18T23:39:13;45.63;;;23.17;;
13487;SDS011;6816;48.506;9.050;2022-12-18T23:42:14;42.90;;;24.83;;
13487;SDS011;6816;48.506;9.050;2022-12-18T23:45:14;43.17;;;25.60;;
13487;SDS011;6816;48.506;9.050;2022-12-18T23:48:15;47.50;;;25.57;;
13487;SDS011;6816;48.506;9.050;2022-12-18T23:51:16;41.50;;;23.50;;
13487;SDS011;6816;48.506;9.050;2022-12-18T23:54:18;43.03;;;25.17;;
13487;SDS011;6816;48.506;9.050;2022-12-18T23:57:19;41.07;;;23.40;;
